createdAt,value
2019-04-01T00:00:55.968Z,25.80
2019-04-01T00:03:26.542Z,23.60
2019-04-01T00:05:57.059Z,24.67
2019-04-01T00:08:27.611Z,24.50
2019-04-01T00:10:58.851Z,22.23
2019-04-01T00:13:29.428Z,22.23
2019-04-01T00:16:00.011Z,22.97
2019-04-01T00:18:30.956Z,21.60
2019-04-01T00:21:01.501Z,22.43
2019-04-01T00:23:32.025Z,21.20
2019-04-01T00:26:03.556Z,23.47
2019-04-01T00:28:34.328Z,21.47
2019-04-01T00:31:04.852Z,19.77
2019-04-01T00:33:35.389Z,20.60
2019-04-01T00:36:06.297Z,20.90
2019-04-01T00:38:36.840Z,20.83
2019-04-01T00:41:07.498Z,22.33
2019-04-01T00:43:55.301Z,22.77
2019-04-01T00:46:25.892Z,22.03
2019-04-01T00:48:56.383Z,21.73
2019-04-01T00:51:27.546Z,23.17
2019-04-01T00:53:58.588Z,22.50
2019-04-01T00:56:29.479Z,24.00
2019-04-01T00:59:01.826Z,22.07
2019-04-01T01:01:32.407Z,23.43
2019-04-01T01:04:02.920Z,22.80
2019-04-01T01:06:33.848Z,23.60
2019-04-01T01:09:06.480Z,23.63
2019-04-01T01:11:38.007Z,23.47
2019-04-01T01:14:08.466Z,23.37
2019-04-01T01:16:39.007Z,27.13
2019-04-01T01:19:09.995Z,25.23
2019-04-01T01:21:41.502Z,24.73
2019-04-01T01:24:12.452Z,30.20
2019-04-01T01:26:43.442Z,28.30
2019-04-01T01:29:13.993Z,31.33
2019-04-01T01:31:44.581Z,27.97
2019-04-01T01:34:15.484Z,26.90
2019-04-01T01:36:46.023Z,27.73
2019-04-01T01:39:16.538Z,29.70
2019-04-01T01:41:47.472Z,28.03
2019-04-01T01:44:17.982Z,29.70
2019-04-01T01:46:48.563Z,25.93
2019-04-01T01:49:19.044Z,28.43
2019-04-01T01:51:50.720Z,31.53
2019-04-01T01:54:21.251Z,26.87
2019-04-01T01:56:51.808Z,28.60
2019-04-01T01:59:22.331Z,33.80
2019-04-01T02:01:53.829Z,34.50
2019-04-01T02:04:24.801Z,30.70
2019-04-01T02:06:55.348Z,30.00
2019-04-01T02:09:26.015Z,35.27
2019-04-01T02:11:56.551Z,37.30
2019-04-01T02:14:27.413Z,35.27
2019-04-01T02:16:57.961Z,37.13
2019-04-01T02:19:28.567Z,33.17
2019-04-01T02:21:59.058Z,34.63
2019-04-01T02:24:30.077Z,39.47
2019-04-01T02:27:01.110Z,40.60
2019-04-01T02:29:31.589Z,36.10
2019-04-01T02:32:02.469Z,37.90
2019-04-01T02:34:32.967Z,40.77
2019-04-01T02:37:03.447Z,37.33
2019-04-01T02:39:34.845Z,40.37
2019-04-01T02:42:05.938Z,36.43
2019-04-01T02:44:36.438Z,37.80
2019-04-01T02:47:07.020Z,40.13
2019-04-01T02:49:37.862Z,40.93
2019-04-01T02:52:08.864Z,38.57
2019-04-01T02:54:41.002Z,41.43
2019-04-01T02:57:13.125Z,39.63
2019-04-01T02:59:43.740Z,42.10
2019-04-01T03:02:14.758Z,39.40
2019-04-01T03:04:46.337Z,39.77
2019-04-01T03:07:17.370Z,37.97
2019-04-01T03:09:47.927Z,39.60
2019-04-01T03:12:18.450Z,41.60
2019-04-01T03:14:48.983Z,42.60
2019-04-01T03:17:19.541Z,44.63
2019-04-01T03:19:50.057Z,43.30
2019-04-01T03:22:21.329Z,40.17
2019-04-01T03:24:51.869Z,38.00
2019-04-01T03:27:22.389Z,39.47
2019-04-01T03:29:52.973Z,42.10
2019-04-01T03:32:24.901Z,39.43
2019-04-01T03:34:55.429Z,49.23
2019-04-01T03:37:26.457Z,43.23
2019-04-01T03:39:57.431Z,47.97
2019-04-01T03:42:28.835Z,47.10
2019-04-01T03:44:59.324Z,45.87
2019-04-01T03:47:29.865Z,43.13
2019-04-01T03:50:00.759Z,45.30
2019-04-01T03:52:31.442Z,45.00
2019-04-01T03:55:01.970Z,44.77
2019-04-01T03:57:33.190Z,49.43
2019-04-01T04:00:03.914Z,46.23
2019-04-01T04:02:34.705Z,49.40
2019-04-01T04:05:05.407Z,49.63
2019-04-01T04:07:36.278Z,43.60
2019-04-01T04:10:07.306Z,41.03
2019-04-01T04:12:37.824Z,53.10
2019-04-01T04:15:11.225Z,48.20
2019-04-01T04:17:41.820Z,51.90
2019-04-01T04:20:14.809Z,47.70
2019-04-01T04:22:45.786Z,47.30
2019-04-01T04:25:16.344Z,49.23
2019-04-01T04:27:46.900Z,47.57
2019-04-01T04:30:21.237Z,45.90
2019-04-01T04:32:51.721Z,49.23
2019-04-01T04:35:22.277Z,52.40
2019-04-01T04:37:53.255Z,50.17
2019-04-01T04:40:23.777Z,49.03
2019-04-01T04:42:55.364Z,48.40
2019-04-01T04:45:25.893Z,51.20
2019-04-01T04:47:57.610Z,46.47
2019-04-01T04:50:28.536Z,47.50
2019-04-01T04:52:59.906Z,48.30
2019-04-01T04:55:30.430Z,51.47
2019-04-01T04:58:00.900Z,44.00
2019-04-01T05:00:31.431Z,48.47
2019-04-01T05:03:01.955Z,50.57
2019-04-01T05:05:32.469Z,42.17
2019-04-01T05:08:03.639Z,44.27
2019-04-01T05:10:34.647Z,39.93
2019-04-01T05:13:05.188Z,44.27
2019-04-01T05:15:36.089Z,39.53
2019-04-01T05:18:07.122Z,41.53
2019-04-01T05:20:39.276Z,36.27
2019-04-01T05:23:10.301Z,41.90
2019-04-01T05:25:41.549Z,42.97
2019-04-01T05:28:14.648Z,40.80
2019-04-01T05:30:46.795Z,43.80
2019-04-01T05:33:20.312Z,40.83
2019-04-01T05:35:51.333Z,43.30
2019-04-01T05:38:21.742Z,45.10
2019-04-01T05:40:53.340Z,51.67
2019-04-01T05:43:24.168Z,42.50
2019-04-01T05:45:54.555Z,45.67
2019-04-01T05:48:29.660Z,49.13
2019-04-01T05:51:00.484Z,46.53
2019-04-01T05:53:31.881Z,44.20
2019-04-01T05:56:02.624Z,40.33
2019-04-01T05:58:33.352Z,44.40
2019-04-01T06:01:11.092Z,45.67
2019-04-01T06:03:42.134Z,40.67
2019-04-01T06:06:12.633Z,45.23
2019-04-01T06:08:43.629Z,49.63
2019-04-01T06:11:14.227Z,45.30
2019-04-01T06:13:44.833Z,38.23
2019-04-01T06:16:15.663Z,45.87
2019-04-01T06:18:46.653Z,52.37
2019-04-01T06:21:17.283Z,44.43
2019-04-01T06:23:47.622Z,44.23
2019-04-01T06:26:18.456Z,41.03
2019-04-01T06:28:48.867Z,37.87
2019-04-01T06:31:19.348Z,46.67
2019-04-01T06:33:50.553Z,41.43
2019-04-01T06:36:21.356Z,43.40
2019-04-01T06:38:52.278Z,47.83
2019-04-01T06:41:23.092Z,41.63
2019-04-01T06:43:53.728Z,44.13
2019-04-01T06:46:24.424Z,43.70
2019-04-01T06:48:55.341Z,41.67
2019-04-01T06:51:27.711Z,38.47
2019-04-01T06:54:12.142Z,43.00
2019-04-01T06:56:43.221Z,41.93
2019-04-01T06:59:14.101Z,41.00
2019-04-01T07:01:44.662Z,42.20
2019-04-01T07:04:15.694Z,44.40
2019-04-01T07:06:46.445Z,41.80
2019-04-01T07:09:17.332Z,41.07
2019-04-01T07:11:48.056Z,45.57
2019-04-01T07:14:19.832Z,41.37
2019-04-01T07:16:51.458Z,44.53
2019-04-01T07:19:22.041Z,42.13
2019-04-01T07:21:54.550Z,44.80
2019-04-01T07:24:25.429Z,41.10
2019-04-01T07:26:55.936Z,43.60
2019-04-01T07:29:26.454Z,43.07
2019-04-01T07:31:57.431Z,44.73
2019-04-01T07:34:27.945Z,40.63
2019-04-01T07:36:58.612Z,39.53
2019-04-01T07:39:29.708Z,40.03
2019-04-01T07:42:02.030Z,36.80
2019-04-01T07:44:32.828Z,39.87
2019-04-01T07:47:03.332Z,40.73
2019-04-01T07:49:33.853Z,37.80
2019-04-01T07:52:05.752Z,37.23
2019-04-01T07:54:36.382Z,37.70
2019-04-01T07:57:06.884Z,37.17
2019-04-01T07:59:38.266Z,39.30
2019-04-01T08:02:09.268Z,36.37
2019-04-01T08:04:39.910Z,41.40
2019-04-01T08:07:13.563Z,39.17
2019-04-01T08:09:44.297Z,38.47
2019-04-01T08:12:14.774Z,40.10
2019-04-01T08:14:46.142Z,35.73
2019-04-01T08:17:16.663Z,33.47
2019-04-01T08:19:47.233Z,36.47
2019-04-01T08:22:17.872Z,34.13
2019-04-01T08:24:49.070Z,37.40
2019-04-01T08:27:20.532Z,35.93
2019-04-01T08:29:51.456Z,34.63
2019-04-01T08:32:22.025Z,37.53
2019-04-01T08:34:52.928Z,40.13
2019-04-01T08:37:23.449Z,37.70
2019-04-01T08:39:54.820Z,37.13
2019-04-01T08:42:25.393Z,38.33
2019-04-01T08:44:56.308Z,37.70
2019-04-01T08:47:27.203Z,34.23
2019-04-01T08:49:57.720Z,35.10
2019-04-01T08:52:28.281Z,35.73
2019-04-01T08:54:59.942Z,42.77
2019-04-01T08:57:30.793Z,37.40
2019-04-01T09:00:01.298Z,34.43
2019-04-01T09:02:33.080Z,33.63
2019-04-01T09:05:04.362Z,37.60
2019-04-01T09:07:35.356Z,34.37
2019-04-01T09:10:06.600Z,34.77
2019-04-01T09:12:37.220Z,32.63
2019-04-01T09:15:08.681Z,39.03
2019-04-01T09:17:40.410Z,32.77
2019-04-01T09:20:11.397Z,32.27
2019-04-01T09:22:43.321Z,32.30
2019-04-01T09:25:13.965Z,35.27
2019-04-01T09:27:46.010Z,31.77
2019-04-01T09:30:18.869Z,34.07
2019-04-01T09:32:49.509Z,32.37
2019-04-01T09:35:21.000Z,35.60
2019-04-01T09:37:51.615Z,34.80
2019-04-01T09:40:22.659Z,35.27
2019-04-01T09:42:53.973Z,33.10
2019-04-01T09:45:24.524Z,33.73
2019-04-01T09:47:55.134Z,33.93
2019-04-01T09:50:25.652Z,30.30
2019-04-01T09:52:56.697Z,32.43
2019-04-01T09:55:29.370Z,32.10
2019-04-01T09:57:59.961Z,29.37
2019-04-01T10:00:32.040Z,33.43
2019-04-01T10:03:02.668Z,36.17
2019-04-01T10:05:33.744Z,33.10
2019-04-01T10:08:04.968Z,33.60
2019-04-01T10:10:37.174Z,32.83
2019-04-01T10:13:08.164Z,33.73
2019-04-01T10:15:38.809Z,33.80
2019-04-01T10:18:09.423Z,30.10
2019-04-01T10:20:40.526Z,33.00
2019-04-01T10:23:12.707Z,32.13
2019-04-01T10:25:45.305Z,33.90
2019-04-01T10:28:15.868Z,31.03
2019-04-01T10:30:46.850Z,29.77
2019-04-01T10:33:17.539Z,31.03
2019-04-01T10:35:48.579Z,31.10
2019-04-01T10:38:19.597Z,30.43
2019-04-01T10:40:50.121Z,33.10
2019-04-01T10:43:21.105Z,34.00
2019-04-01T10:45:51.686Z,33.13
2019-04-01T10:48:22.384Z,32.13
2019-04-01T10:50:53.746Z,30.00
2019-04-01T10:53:24.797Z,31.77
2019-04-01T10:55:55.203Z,31.73
2019-04-01T10:58:26.191Z,29.53
2019-04-01T11:00:56.790Z,33.03
2019-04-01T11:03:27.527Z,31.73
2019-04-01T11:05:58.093Z,30.20
2019-04-01T11:08:28.635Z,29.40
2019-04-01T11:10:59.613Z,32.40
2019-04-01T11:13:30.348Z,28.30
2019-04-01T11:16:00.874Z,32.53
2019-04-01T11:18:31.883Z,28.67
2019-04-01T11:21:02.373Z,30.13
2019-04-01T11:23:35.025Z,31.87
2019-04-01T11:26:06.037Z,28.87
2019-04-01T11:28:36.640Z,29.87
2019-04-01T11:31:07.215Z,28.37
2019-04-01T11:33:38.296Z,28.97
2019-04-01T11:36:08.893Z,26.57
2019-04-01T11:38:39.942Z,29.40
2019-04-01T11:41:11.422Z,31.53
2019-04-01T11:43:42.055Z,27.83
2019-04-01T11:46:12.974Z,30.23
2019-04-01T11:48:43.589Z,27.00
2019-04-01T11:51:14.617Z,31.90
2019-04-01T11:53:45.128Z,32.23
2019-04-01T11:56:15.658Z,31.10
2019-04-01T11:58:47.415Z,27.83
2019-04-01T12:01:18.904Z,26.33
2019-04-01T12:03:49.973Z,29.60
2019-04-01T12:06:21.268Z,30.33
2019-04-01T12:08:53.036Z,26.93
2019-04-01T12:11:24.530Z,28.07
2019-04-01T12:13:56.911Z,28.13
2019-04-01T12:16:27.638Z,28.00
2019-04-01T12:18:58.182Z,26.45
2019-04-01T12:21:28.857Z,25.25
2019-04-01T12:23:59.816Z,21.33
2019-04-01T12:26:30.391Z,23.75
2019-04-01T12:29:00.934Z,24.15
2019-04-01T12:31:32.426Z,29.02
2019-04-01T12:34:03.058Z,24.73
2019-04-01T12:36:34.023Z,24.65
2019-04-01T12:39:06.354Z,27.37
2019-04-01T12:41:36.985Z,28.12
2019-04-01T12:44:07.617Z,24.07
2019-04-01T12:46:38.620Z,24.35
2019-04-01T12:49:09.129Z,22.50
2019-04-01T12:51:39.709Z,26.62
2019-04-01T12:54:10.334Z,27.07
2019-04-01T12:56:40.885Z,26.30
2019-04-01T12:59:11.835Z,23.47
2019-04-01T13:01:42.797Z,26.70
2019-04-01T13:04:13.313Z,22.05
2019-04-01T13:06:44.816Z,21.65
2019-04-01T13:09:15.760Z,25.70
2019-04-01T13:11:46.305Z,27.48
2019-04-01T13:14:16.850Z,26.48
2019-04-01T13:16:47.808Z,24.07
2019-04-01T13:19:18.729Z,28.75
2019-04-01T13:21:50.429Z,25.23
2019-04-01T13:24:21.397Z,28.55
2019-04-01T13:26:51.984Z,22.73
2019-04-01T13:29:24.029Z,23.65
2019-04-01T13:31:54.781Z,22.70
2019-04-01T13:34:25.336Z,22.82
2019-04-01T13:36:55.908Z,20.48
2019-04-01T13:39:27.344Z,25.25
2019-04-01T13:41:59.160Z,24.32
2019-04-01T13:44:36.958Z,23.62
2019-04-01T13:47:01.950Z,21.45
2019-04-01T13:49:32.598Z,22.40
2019-04-01T13:52:03.758Z,19.52
2019-04-01T13:54:34.996Z,23.57
2019-04-01T13:57:05.566Z,26.40
2019-04-01T13:59:48.571Z,18.75
2019-04-01T14:02:08.741Z,21.52
2019-04-01T14:04:39.289Z,23.52
2019-04-01T14:07:09.899Z,23.70
2019-04-01T14:09:41.583Z,24.15
2019-04-01T14:12:12.484Z,21.12
2019-04-01T14:14:43.082Z,20.45
2019-04-01T14:17:13.684Z,20.55
2019-04-01T14:19:44.705Z,20.48
2019-04-01T14:22:15.716Z,21.52
2019-04-01T14:24:46.313Z,21.05
2019-04-01T14:27:17.300Z,22.98
2019-04-01T14:29:48.309Z,19.20
2019-04-01T14:32:18.873Z,22.80
2019-04-01T14:34:50.432Z,22.30
2019-04-01T14:37:25.615Z,20.10
2019-04-01T14:39:55.788Z,19.77
2019-04-01T14:42:27.141Z,18.92
2019-04-01T14:45:01.004Z,21.20
2019-04-01T14:47:32.679Z,21.52
2019-04-01T14:50:07.526Z,22.70
2019-04-01T14:52:36.625Z,19.37
2019-04-01T14:55:07.392Z,17.57
2019-04-01T14:57:38.389Z,18.52
2019-04-01T15:00:13.202Z,21.37
2019-04-01T15:02:43.797Z,20.02
2019-04-01T15:05:15.023Z,18.82
2019-04-01T15:07:46.975Z,17.33
2019-04-01T15:10:18.532Z,20.27
2019-04-01T15:13:03.991Z,20.37
2019-04-01T15:15:22.712Z,22.00
2019-04-01T15:17:53.635Z,21.23
2019-04-01T15:20:25.146Z,16.90
2019-04-01T15:22:56.555Z,18.05
2019-04-01T15:25:27.621Z,21.27
2019-04-01T15:27:58.647Z,18.32
2019-04-01T15:30:31.978Z,17.82
2019-04-01T15:33:02.907Z,17.45
2019-04-01T15:35:33.550Z,21.23
2019-04-01T15:38:04.078Z,19.73
2019-04-01T15:40:35.024Z,22.80
2019-04-01T15:43:06.116Z,16.45
2019-04-01T15:45:37.092Z,17.85
2019-04-01T15:48:08.614Z,18.60
2019-04-01T15:50:39.225Z,20.00
2019-04-01T15:53:10.825Z,16.90
2019-04-01T15:55:41.397Z,19.95
2019-04-01T15:58:12.489Z,16.57
2019-04-01T16:00:43.471Z,20.43
2019-04-01T16:03:14.567Z,17.65
2019-04-01T16:05:45.080Z,20.03
2019-04-01T16:08:16.115Z,15.03
2019-04-01T16:10:46.672Z,19.07
2019-04-01T16:13:17.185Z,16.80
2019-04-01T16:15:47.713Z,20.60
2019-04-01T16:18:18.225Z,17.23
2019-04-01T16:20:48.770Z,18.57
2019-04-01T16:23:19.477Z,16.70
2019-04-01T16:25:49.968Z,18.53
2019-04-01T16:28:20.505Z,19.73
2019-04-01T16:30:51.012Z,22.27
2019-04-01T16:33:21.598Z,18.50
2019-04-01T16:35:52.504Z,16.87
2019-04-01T16:38:23.146Z,18.57
2019-04-01T16:40:53.739Z,22.30
2019-04-01T16:43:24.745Z,18.77
2019-04-01T16:45:56.058Z,19.30
2019-04-01T16:48:34.289Z,20.10
2019-04-01T16:51:04.825Z,20.67
2019-04-01T16:53:36.594Z,20.70
2019-04-01T16:56:07.224Z,21.37
2019-04-01T16:58:38.959Z,18.40
2019-04-01T17:01:09.995Z,19.90
2019-04-01T17:03:42.404Z,18.50
2019-04-01T17:06:15.122Z,21.03
2019-04-01T17:08:46.313Z,20.83
2019-04-01T17:11:16.715Z,21.40
2019-04-01T17:13:48.513Z,19.53
2019-04-01T17:16:18.965Z,18.63
2019-04-01T17:18:49.953Z,20.67
2019-04-01T17:21:20.567Z,18.47
2019-04-01T17:23:51.166Z,20.23
2019-04-01T17:26:23.117Z,19.93
2019-04-01T17:28:53.993Z,18.50
2019-04-01T17:31:24.908Z,15.77
2019-04-01T17:33:55.872Z,18.93
2019-04-01T17:36:30.913Z,16.00
2019-04-01T17:39:02.596Z,18.63
2019-04-01T17:41:34.380Z,16.40
2019-04-01T17:44:06.735Z,21.43
2019-04-01T17:46:37.696Z,18.43
2019-04-01T17:49:08.677Z,17.93
2019-04-01T17:51:39.209Z,17.40
2019-04-01T17:54:10.413Z,16.53
2019-04-01T17:56:42.089Z,19.33
2019-04-01T17:59:13.267Z,16.67
2019-04-01T18:01:45.499Z,17.30
2019-04-01T18:04:16.306Z,18.97
2019-04-01T18:06:47.411Z,16.03
2019-04-01T18:09:18.932Z,17.43
2019-04-01T18:11:50.021Z,16.23
2019-04-01T18:14:21.120Z,20.80
2019-04-01T18:16:52.340Z,16.20
2019-04-01T18:19:24.989Z,16.67
2019-04-01T18:21:55.975Z,16.23
2019-04-01T18:24:26.470Z,13.03
2019-04-01T18:26:58.537Z,18.97
2019-04-01T18:29:29.484Z,15.33
2019-04-01T18:32:00.094Z,15.77
2019-04-01T18:34:30.603Z,15.87
2019-04-01T18:37:01.227Z,15.67
2019-04-01T18:39:32.241Z,19.93
2019-04-01T18:42:03.085Z,18.30
2019-04-01T18:44:34.322Z,15.60
2019-04-01T18:47:05.516Z,18.37
2019-04-01T18:49:36.104Z,16.90
2019-04-01T18:52:10.073Z,16.37
2019-04-01T18:54:43.061Z,15.63
2019-04-01T18:57:14.274Z,17.47
2019-04-01T18:59:45.332Z,17.10
2019-04-01T19:02:16.000Z,15.73
2019-04-01T19:04:47.041Z,20.07
2019-04-01T19:07:21.726Z,16.53
2019-04-01T19:09:51.053Z,16.47
2019-04-01T19:12:21.730Z,16.97
2019-04-01T19:14:54.289Z,16.57
2019-04-01T19:17:24.525Z,17.10
2019-04-01T19:19:55.404Z,14.83
2019-04-01T19:22:31.449Z,17.17
2019-04-01T19:25:03.013Z,16.00
2019-04-01T19:27:33.663Z,17.23
2019-04-01T19:30:05.840Z,16.37
2019-04-01T19:32:38.196Z,20.00
2019-04-01T19:35:09.580Z,21.13
2019-04-01T19:37:41.659Z,18.30
2019-04-01T19:40:13.763Z,17.93
2019-04-01T19:42:44.679Z,14.87
2019-04-01T19:45:16.485Z,16.33
2019-04-01T19:47:47.515Z,15.13
2019-04-01T19:50:19.453Z,16.73
2019-04-01T19:52:50.599Z,15.27
2019-04-01T19:55:21.598Z,19.73
2019-04-01T19:57:52.185Z,20.27
2019-04-01T20:00:28.072Z,19.17
2019-04-01T20:03:03.113Z,21.80
2019-04-01T20:05:33.702Z,20.40
2019-04-01T20:08:04.746Z,23.13
2019-04-01T20:10:35.825Z,17.90
2019-04-01T20:13:10.301Z,14.97
2019-04-01T20:15:41.738Z,15.50
2019-04-01T20:18:36.230Z,15.97
2019-04-01T20:21:08.293Z,14.67
2019-04-01T20:23:38.876Z,16.33
2019-04-01T20:26:09.584Z,20.80
2019-04-01T20:28:45.049Z,17.10
2019-04-01T20:31:16.159Z,17.07
2019-04-01T20:33:49.153Z,16.27
2019-04-01T20:36:28.487Z,19.43
2019-04-01T20:38:58.165Z,18.20
2019-04-01T20:41:28.737Z,16.10
2019-04-01T20:43:59.813Z,21.10
2019-04-01T20:46:30.368Z,16.87
2019-04-01T20:49:02.210Z,19.43
2019-04-01T20:51:33.084Z,15.50
2019-04-01T20:54:03.621Z,15.80
2019-04-01T20:56:34.484Z,16.83
2019-04-01T20:59:05.656Z,15.57
2019-04-01T21:01:36.181Z,15.10
2019-04-01T21:04:07.161Z,15.57
2019-04-01T21:06:37.849Z,15.77
2019-04-01T21:09:10.275Z,19.40
2019-04-01T21:11:42.288Z,14.83
2019-04-01T21:14:16.512Z,15.30
2019-04-01T21:16:48.600Z,13.67
2019-04-01T21:19:19.547Z,17.23
2019-04-01T21:21:50.640Z,15.47
2019-04-01T21:24:21.179Z,14.73
2019-04-01T21:26:52.134Z,15.23
2019-04-01T21:29:23.016Z,15.17
2019-04-01T21:31:54.405Z,17.03
2019-04-01T21:34:25.414Z,15.40
2019-04-01T21:36:57.666Z,19.40
2019-04-01T21:39:30.047Z,24.27
2019-04-01T21:42:00.897Z,18.87
2019-04-01T21:44:31.515Z,22.07
2019-04-01T21:47:02.554Z,18.53
2019-04-01T21:49:33.579Z,19.10
2019-04-01T21:52:05.200Z,18.33
2019-04-01T21:54:36.369Z,20.07
2019-04-01T21:57:07.417Z,21.53
2019-04-01T21:59:39.072Z,16.83
2019-04-01T22:02:10.297Z,16.67
2019-04-01T22:04:41.310Z,18.70
2019-04-01T22:07:12.233Z,19.37
2019-04-01T22:09:42.907Z,20.70
2019-04-01T22:12:13.421Z,21.57
2019-04-01T22:14:43.953Z,15.37
2019-04-01T22:17:14.624Z,19.30
2019-04-01T22:19:45.212Z,20.73
2019-04-01T22:22:15.790Z,16.27
2019-04-01T22:24:48.712Z,15.07
2019-04-01T22:27:20.312Z,14.50
2019-04-01T22:29:52.206Z,14.40
2019-04-01T22:32:23.186Z,17.17
2019-04-01T22:34:53.797Z,17.43
2019-04-01T22:37:27.443Z,17.53
2019-04-01T22:39:57.048Z,17.93
2019-04-01T22:42:28.530Z,15.03
2019-04-01T22:44:59.493Z,14.53
2019-04-01T22:47:30.416Z,14.47
2019-04-01T22:50:01.070Z,16.53
2019-04-01T22:52:32.612Z,14.83
2019-04-01T22:55:04.385Z,16.67
2019-04-01T22:57:34.912Z,15.43
2019-04-01T23:00:06.033Z,15.30
2019-04-01T23:02:38.626Z,13.73
2019-04-01T23:05:09.604Z,15.30
2019-04-01T23:07:40.685Z,17.70
2019-04-01T23:10:11.890Z,14.13
2019-04-01T23:12:42.905Z,13.33
2019-04-01T23:15:15.381Z,18.17
2019-04-01T23:17:46.278Z,18.43
2019-04-01T23:20:16.876Z,14.00
2019-04-01T23:22:49.058Z,14.30
2019-04-01T23:25:19.991Z,13.07
2019-04-01T23:27:50.490Z,13.70
2019-04-01T23:30:20.988Z,15.33
2019-04-01T23:32:51.532Z,16.90
2019-04-01T23:35:22.106Z,15.87
2019-04-01T23:37:53.318Z,15.43
2019-04-01T23:40:23.877Z,11.87
2019-04-01T23:42:54.462Z,13.23
2019-04-01T23:45:25.024Z,13.80
2019-04-01T23:47:55.581Z,16.30
2019-04-01T23:50:26.126Z,16.53
2019-04-01T23:52:59.557Z,14.17
2019-04-01T23:55:30.112Z,13.33
2019-04-01T23:58:00.677Z,15.00
